Time;durP1;ratioP1;P1;durP2;ratioP2;P2;SDS_P1;SDS_P2;PMS_P1;PMS_P2;Temp;Humidity;BMP_temperature;BMP_pressure;BME280_temperature;BME280_humidity;BME280_pressure;Samples;Min_cycle;Max_cycle;Signal;HPM_P1;HPM_P2
2021/08/18 00:00:18;;;;;;;4.75;3.25;;;;;;;13.26;68.19;96521.54;1816618;78;20964;-81
2021/08/18 00:02:45;;;;;;;4.75;2.70;;;;;;;13.26;68.29;96511.60;1803537;78;21052;-81
2021/08/18 00:05:14;;;;;;;4.28;2.55;;;;;;;13.27;68.49;96514.02;1787184;78;20922;-81
2021/08/18 00:07:39;;;;;;;4.47;3.22;;;;;;;13.28;68.11;96510.41;1800626;78;20943;-81
2021/08/18 00:10:08;;;;;;;6.12;2.98;;;;;;;13.32;68.81;96504.29;1802106;78;21355;-81
2021/08/18 00:12:34;;;;;;;4.37;2.60;;;;;;;13.32;68.00;96498.56;1801914;78;20999;-81
2021/08/18 00:14:59;;;;;;;4.83;3.70;;;;;;;13.35;69.16;96494.78;1802771;78;20956;-81
2021/08/18 00:17:25;;;;;;;4.60;3.12;;;;;;;13.34;68.64;96499.20;1800336;77;21301;-81
2021/08/18 00:19:51;;;;;;;4.12;3.72;;;;;;;13.33;67.98;96494.16;1771868;78;20952;-81
2021/08/18 00:22:17;;;;;;;5.75;3.80;;;;;;;13.32;68.88;96501.17;1810735;78;20936;-81
2021/08/18 00:24:42;;;;;;;5.33;4.15;;;;;;;13.31;68.34;96500.88;1805361;78;20899;-81
2021/08/18 00:27:08;;;;;;;4.65;3.92;;;;;;;13.34;68.23;96498.38;1806727;78;20950;-81
2021/08/18 00:29:34;;;;;;;5.30;3.33;;;;;;;13.37;68.48;96503.22;1798100;78;20944;-81
2021/08/18 00:32:00;;;;;;;6.40;3.52;;;;;;;13.40;68.49;96504.13;1751757;79;21366;-81
2021/08/18 00:34:25;;;;;;;4.25;3.30;;;;;;;13.39;67.83;96509.85;1759340;79;20936;-82
2021/08/18 00:36:51;;;;;;;5.28;3.83;;;;;;;13.40;68.03;96510.66;1762265;80;20963;-81
2021/08/18 00:39:17;;;;;;;3.90;3.25;;;;;;;13.41;68.39;96513.06;1732620;80;21323;-81
2021/08/18 00:41:45;;;;;;;4.40;3.08;;;;;;;13.40;68.28;96511.96;1756232;81;21036;-81
2021/08/18 00:44:11;;;;;;;5.50;2.85;;;;;;;13.39;68.08;96512.46;1755541;81;21007;-81
2021/08/18 00:46:51;;;;;;;5.33;3.20;;;;;;;13.38;67.78;96517.37;1764131;80;21302;-81
2021/08/18 00:49:19;;;;;;;5.45;2.62;;;;;;;13.38;68.07;96525.20;1757750;81;21374;-81
2021/08/18 00:51:46;;;;;;;4.40;2.72;;;;;;;13.40;67.42;96515.88;1748099;80;21002;-81
2021/08/18 00:54:11;;;;;;;4.70;3.33;;;;;;;13.41;67.25;96514.38;1729852;80;21045;-81
2021/08/18 00:56:37;;;;;;;3.70;3.10;;;;;;;13.45;67.18;96517.39;1738670;81;21036;-81
2021/08/18 00:59:04;;;;;;;5.47;3.83;;;;;;;13.46;67.00;96521.11;1723271;80;21383;-81
2021/08/18 01:01:30;;;;;;;5.87;2.87;;;;;;;13.47;67.15;96515.38;1731013;80;20964;-81
2021/08/18 01:03:56;;;;;;;6.20;3.40;;;;;;;13.47;66.98;96507.55;1728242;81;20960;-81
2021/08/18 01:06:22;;;;;;;5.60;3.17;;;;;;;13.48;66.76;96498.72;1738988;81;20902;-81
2021/08/18 01:08:47;;;;;;;5.87;3.42;;;;;;;13.46;66.53;96497.61;1790356;78;21307;-81
2021/08/18 01:11:13;;;;;;;4.95;3.00;;;;;;;13.44;66.66;96504.03;1802695;78;20956;-81
2021/08/18 01:13:39;;;;;;;4.12;2.95;;;;;;;13.44;66.72;96504.84;1790993;78;20945;-81
2021/08/18 01:16:05;;;;;;;7.22;3.02;;;;;;;13.42;67.19;96506.84;1807746;78;21296;-81
2021/08/18 01:18:31;;;;;;;5.37;2.60;;;;;;;13.41;66.83;96510.95;1796053;78;20970;-81
2021/08/18 01:20:56;;;;;;;4.97;3.08;;;;;;;13.43;66.75;96512.87;1808883;78;20964;-81
2021/08/18 01:23:22;;;;;;;5.08;2.90;;;;;;;13.45;66.68;96502.53;1756230;78;21344;-81
2021/08/18 01:25:48;;;;;;;5.80;3.05;;;;;;;13.46;66.73;96508.05;1823443;78;20918;-81
2021/08/18 01:28:14;;;;;;;5.72;3.52;;;;;;;13.46;66.50;96509.86;1807633;78;21008;-81
2021/08/18 01:30:39;;;;;;;5.60;4.08;;;;;;;13.46;66.50;96502.03;1801780;78;20960;-81
2021/08/18 01:33:10;;;;;;;5.45;3.60;;;;;;;13.44;66.30;96505.34;1793812;79;20899;-81
2021/08/18 01:35:41;;;;;;;5.05;3.58;;;;;;;13.42;66.76;96500.31;1784052;78;20973;-81
2021/08/18 01:38:09;;;;;;;5.72;3.62;;;;;;;13.41;66.39;96502.63;1809870;78;20909;-81
2021/08/18 01:40:35;;;;;;;3.95;3.08;;;;;;;13.39;66.75;96494.69;1814189;78;20968;-81
2021/08/18 01:43:01;;;;;;;4.80;3.22;;;;;;;13.38;66.75;96493.08;1804136;78;21047;-81
2021/08/18 01:45:30;;;;;;;5.15;3.10;;;;;;;13.37;66.66;96483.65;1809877;78;20951;-81
2021/08/18 01:47:56;;;;;;;4.00;3.08;;;;;;;13.39;67.08;96486.86;1797507;78;20905;-81
2021/08/18 01:50:23;;;;;;;5.55;3.42;;;;;;;13.40;67.01;96482.75;1808046;78;20987;-81
2021/08/18 01:52:55;;;;;;;4.37;3.37;;;;;;;13.41;67.00;96479.64;1805015;78;20906;-82
2021/08/18 01:55:24;;;;;;;5.15;3.12;;;;;;;13.41;66.88;96469.20;1805266;78;21315;-81
2021/08/18 01:57:51;;;;;;;7.60;3.65;;;;;;;13.41;67.03;96470.50;1805761;77;21351;-81
2021/08/18 02:00:17;;;;;;;6.42;3.62;;;;;;;13.39;67.29;96460.77;1805321;78;21036;-81
2021/08/18 02:02:43;;;;;;;6.90;3.35;;;;;;;13.38;67.47;96459.16;1811900;78;21071;-81
2021/08/18 02:05:10;;;;;;;6.30;3.62;;;;;;;13.37;67.34;96462.77;1820378;78;21376;-79
2021/08/18 02:07:36;;;;;;;4.85;3.60;;;;;;;13.33;67.37;96462.34;1807638;78;20968;-79
2021/08/18 02:10:04;;;;;;;6.22;3.42;;;;;;;13.32;67.41;96465.95;1787519;78;20950;-79
2021/08/18 02:12:30;;;;;;;5.53;3.95;;;;;;;13.34;68.08;96469.19;1806448;78;20921;-79
2021/08/18 02:14:56;;;;;;;6.10;4.10;;;;;;;13.37;67.89;96469.30;1784551;78;20948;-79
2021/08/18 02:17:21;;;;;;;5.20;3.45;;;;;;;13.38;68.23;96468.29;1797892;78;21016;-79
2021/08/18 02:19:47;;;;;;;7.03;3.98;;;;;;;13.39;69.34;96462.88;1801627;78;21366;-79
2021/08/18 02:22:14;;;;;;;4.65;3.52;;;;;;;13.37;68.77;96466.19;1802814;78;20991;-80
2021/08/18 02:24:39;;;;;;;7.83;3.67;;;;;;;13.34;69.04;96465.75;1808863;78;21252;-79
2021/08/18 02:27:05;;;;;;;5.75;3.85;;;;;;;13.34;70.09;96473.58;1820597;78;20938;-79
2021/08/18 02:29:31;;;;;;;5.60;3.35;;;;;;;13.32;70.14;96475.58;1799608;78;20968;-79
2021/08/18 02:31:57;;;;;;;4.33;2.95;;;;;;;13.31;70.52;96466.14;1802138;78;21022;-79
2021/08/18 02:34:22;;;;;;;7.20;2.95;;;;;;;13.29;70.07;96470.77;1818486;78;20988;-79
2021/08/18 02:36:48;;;;;;;6.62;3.95;;;;;;;13.29;69.11;96475.98;1800278;78;21031;-80
2021/08/18 02:39:14;;;;;;;13.20;6.53;;;;;;;13.27;68.96;96474.88;1810185;78;21355;-79
2021/08/18 02:41:40;;;;;;;13.32;7.70;;;;;;;13.26;68.60;96478.48;1818177;78;20882;-79
2021/08/18 02:44:06;;;;;;;7.30;5.50;;;;;;;13.27;69.55;96473.56;1805344;78;20882;-79
2021/08/18 02:46:31;;;;;;;6.00;4.22;;;;;;;13.26;70.32;96481.09;1803296;78;21340;-82
2021/08/18 02:48:57;;;;;;;6.22;3.58;;;;;;;13.24;70.13;96473.16;1798155;78;20972;-81
2021/08/18 02:51:23;;;;;;;6.72;3.20;;;;;;;13.23;69.90;96474.16;1796531;77;20945;-81
2021/08/18 02:53:48;;;;;;;5.97;3.75;;;;;;;13.24;70.01;96470.05;1801922;78;21306;-81
2021/08/18 02:56:14;;;;;;;8.73;4.35;;;;;;;13.26;70.55;96473.27;1810297;78;20936;-81
2021/08/18 02:58:40;;;;;;;5.20;4.33;;;;;;;13.26;69.80;96476.38;1803169;78;20976;-81
2021/08/18 03:01:06;;;;;;;8.75;4.28;;;;;;;13.27;70.44;96478.79;1817019;78;21370;-81
2021/08/18 03:03:31;;;;;;;6.75;4.00;;;;;;;13.25;70.96;96469.05;1796985;78;20999;-81
2021/08/18 03:05:57;;;;;;;6.15;3.67;;;;;;;13.19;70.95;96466.73;1785871;78;20912;-81
2021/08/18 03:08:23;;;;;;;4.72;3.33;;;;;;;13.19;70.88;96462.02;1808774;78;21229;-81
2021/08/18 03:10:49;;;;;;;6.60;4.30;;;;;;;13.19;70.88;96456.30;1804356;78;20909;-81
2021/08/18 03:13:15;;;;;;;5.35;4.08;;;;;;;13.20;71.47;96451.38;1780445;79;20918;-81
2021/08/18 03:15:40;;;;;;;7.25;4.10;;;;;;;13.19;71.03;96451.58;1810005;78;20921;-81
2021/08/18 03:18:06;;;;;;;6.45;3.62;;;;;;;13.17;71.07;96458.74;1799905;78;20965;-81
2021/08/18 03:20:32;;;;;;;7.42;6.05;;;;;;;13.15;71.26;96457.63;1809188;78;21066;-81
2021/08/18 03:22:58;;;;;;;5.65;3.80;;;;;;;13.13;70.86;96461.44;1807064;78;20931;-81
2021/08/18 03:25:24;;;;;;;6.28;3.72;;;;;;;13.13;71.50;96462.25;1798077;78;21316;-81
2021/08/18 03:27:49;;;;;;;5.15;3.15;;;;;;;13.13;71.54;96457.03;1799647;78;20929;-81
2021/08/18 03:30:15;;;;;;;7.53;4.30;;;;;;;13.12;71.54;96454.12;1804828;78;20940;-81
2021/08/18 03:32:41;;;;;;;6.12;3.90;;;;;;;13.12;71.79;96450.20;1801870;77;20901;-81
2021/08/18 03:35:07;;;;;;;7.62;4.10;;;;;;;13.11;71.71;96459.03;1795875;78;20981;-81
2021/08/18 03:37:33;;;;;;;8.95;4.55;;;;;;;13.12;71.91;96462.45;1811180;78;20937;-81
2021/08/18 03:39:59;;;;;;;11.48;4.42;;;;;;;13.12;72.14;96463.75;1808809;78;21315;-81
2021/08/18 03:42:25;;;;;;;4.97;3.90;;;;;;;13.09;72.27;96460.23;1793360;79;20944;-81
2021/08/18 03:44:51;;;;;;;5.20;3.70;;;;;;;13.09;72.33;96460.23;1818322;78;21017;-81
2021/08/18 03:47:16;;;;;;;5.70;4.05;;;;;;;13.09;72.05;96453.71;1778181;79;21056;-81
2021/08/18 03:49:42;;;;;;;7.75;5.70;;;;;;;13.10;72.20;96455.32;1775162;79;21016;-81
2021/08/18 03:52:08;;;;;;;8.23;5.87;;;;;;;13.11;72.11;96458.23;1813204;78;21372;-81
2021/08/18 03:54:34;;;;;;;8.65;5.90;;;;;;;13.12;71.92;96465.86;1805490;78;21366;-81
2021/08/18 03:56:59;;;;;;;8.53;5.03;;;;;;;13.15;72.08;96468.07;1817783;78;20893;-81
2021/08/18 03:59:25;;;;;;;6.25;4.30;;;;;;;13.15;71.98;96464.66;1817195;77;20881;-81
2021/08/18 04:01:51;;;;;;;7.97;4.03;;;;;;;13.12;72.29;96468.47;1776724;79;21509;-81
2021/08/18 04:04:17;;;;;;;6.35;4.00;;;;;;;13.12;72.20;96472.88;1761786;79;21309;-81
2021/08/18 04:06:43;;;;;;;7.22;4.62;;;;;;;13.14;72.19;96479.51;1764146;79;20900;-81
2021/08/18 04:09:10;;;;;;;6.58;3.98;;;;;;;13.16;72.20;96476.70;1773022;80;21405;-81
2021/08/18 04:11:35;;;;;;;7.12;4.87;;;;;;;13.17;71.06;96491.36;1743069;80;21000;-81
2021/08/18 04:14:01;;;;;;;6.90;4.22;;;;;;;13.16;71.08;96487.94;1770130;80;21030;-81
2021/08/18 04:16:27;;;;;;;5.90;4.15;;;;;;;13.17;71.33;96493.46;1772454;80;21415;-81
2021/08/18 04:18:52;;;;;;;5.92;4.25;;;;;;;13.17;70.93;96493.96;1768610;79;20959;-81
2021/08/18 04:21:18;;;;;;;6.10;3.50;;;;;;;13.16;70.31;96493.16;1756126;79;20935;-81
2021/08/18 04:23:44;;;;;;;7.53;4.65;;;;;;;13.20;71.08;96491.82;1737223;79;21353;-82
2021/08/18 04:26:09;;;;;;;6.87;4.40;;;;;;;13.24;70.76;96490.92;1744276;79;20919;-81
2021/08/18 04:28:35;;;;;;;7.50;4.92;;;;;;;13.28;70.25;96493.94;1747508;80;20928;-81
2021/08/18 04:31:01;;;;;;;5.15;4.00;;;;;;;13.28;69.73;96487.42;1747315;79;21298;-81
2021/08/18 04:33:27;;;;;;;6.20;5.08;;;;;;;13.29;70.03;96492.44;1762220;79;20955;-81
2021/08/18 04:35:52;;;;;;;6.22;4.40;;;;;;;13.30;69.67;96494.05;1767508;79;20911;-81
2021/08/18 04:38:18;;;;;;;7.00;4.42;;;;;;;13.30;69.57;96496.66;1764727;79;21345;-81
2021/08/18 04:40:44;;;;;;;5.53;3.85;;;;;;;13.28;69.48;96495.25;1747414;80;20972;-81
2021/08/18 04:43:13;;;;;;;7.47;3.60;;;;;;;13.28;69.41;96499.97;1748661;79;20990;-81
2021/08/18 04:45:40;;;;;;;6.25;4.10;;;;;;;13.32;69.23;96499.06;1742585;79;20955;-81
2021/08/18 04:48:06;;;;;;;6.30;4.10;;;;;;;13.34;68.83;96497.06;1768300;80;21306;-81
2021/08/18 04:50:31;;;;;;;7.00;4.70;;;;;;;13.38;69.00;96497.80;1763026;79;20994;-81
2021/08/18 04:52:57;;;;;;;6.10;4.30;;;;;;;13.40;68.81;96497.10;1743453;80;20939;-81
2021/08/18 04:55:23;;;;;;;6.10;3.87;;;;;;;13.41;69.10;96495.30;1766221;80;21274;-81
2021/08/18 04:57:49;;;;;;;6.25;4.47;;;;;;;13.39;68.54;96492.89;1764470;80;20923;-81
2021/08/18 05:00:16;;;;;;;5.62;4.15;;;;;;;13.41;68.86;96504.44;1764148;80;20967;-81
2021/08/18 05:02:44;;;;;;;6.92;4.10;;;;;;;13.38;69.03;96496.50;1742925;80;20936;-81
2021/08/18 05:05:12;;;;;;;8.38;4.28;;;;;;;13.40;69.47;96495.00;1755518;80;21382;-81
2021/08/18 05:07:38;;;;;;;6.22;3.83;;;;;;;13.42;68.95;96499.52;1752584;80;21002;-81
2021/08/18 05:10:05;;;;;;;5.70;3.98;;;;;;;13.47;68.67;96505.74;1739644;80;21023;-82
2021/08/18 05:12:31;;;;;;;7.47;4.85;;;;;;;13.50;68.67;96502.77;1746703;80;20955;-81
2021/08/18 05:14:57;;;;;;;5.97;4.15;;;;;;;13.54;68.44;96507.09;1748107;80;20999;-81
2021/08/18 05:17:23;;;;;;;8.13;5.83;;;;;;;13.61;69.45;96509.70;1739154;80;21054;-82
2021/08/18 05:19:48;;;;;;;6.80;4.28;;;;;;;13.63;68.57;96506.39;1745833;80;21078;-81
2021/08/18 05:22:15;;;;;;;6.50;4.90;;;;;;;13.65;68.36;96512.22;1750629;80;21034;-82
2021/08/18 05:24:40;;;;;;;7.30;4.50;;;;;;;13.66;67.48;96521.16;1748249;80;21354;-81
2021/08/18 05:27:06;;;;;;;5.58;4.30;;;;;;;13.65;67.26;96519.55;1757880;81;20931;-81
2021/08/18 05:29:32;;;;;;;7.47;4.72;;;;;;;13.67;67.58;96523.30;1738092;81;21021;-82
2021/08/18 05:31:57;;;;;;;7.17;4.65;;;;;;;13.71;67.67;96519.28;1738179;81;20984;-81
2021/08/18 05:34:23;;;;;;;7.60;4.78;;;;;;;13.73;67.97;96527.21;1740561;81;21039;-82
2021/08/18 05:36:49;;;;;;;5.58;4.30;;;;;;;13.75;67.62;96523.90;1741054;81;21074;-82
2021/08/18 05:39:15;;;;;;;6.72;4.53;;;;;;;13.81;67.66;96525.70;1758483;80;20989;-81
2021/08/18 05:41:40;;;;;;;6.60;4.37;;;;;;;13.88;67.62;96530.16;1745351;80;21402;-82
2021/08/18 05:44:06;;;;;;;6.75;4.37;;;;;;;13.91;67.78;96531.06;1761127;80;20995;-82
2021/08/18 05:46:32;;;;;;;7.28;4.75;;;;;;;13.92;67.36;96531.36;1740088;80;21035;-81
2021/08/18 05:48:57;;;;;;;7.40;4.80;;;;;;;13.93;67.29;96528.55;1758040;80;20948;-81
2021/08/18 05:51:23;;;;;;;7.45;4.72;;;;;;;13.93;67.68;96529.05;1759524;80;20918;-81
2021/08/18 05:53:50;;;;;;;8.53;5.33;;;;;;;13.94;68.00;96530.66;1757516;81;20916;-81
2021/08/18 05:56:17;;;;;;;8.80;4.70;;;;;;;13.94;67.89;96536.69;1740061;81;21516;-82
2021/08/18 05:58:43;;;;;;;7.47;4.75;;;;;;;13.95;68.21;96537.48;1752014;81;21346;-81
2021/08/18 06:01:09;;;;;;;6.47;4.25;;;;;;;13.96;67.99;96538.59;1758213;80;20998;-81
2021/08/18 06:03:37;;;;;;;7.35;4.75;;;;;;;14.00;68.11;96532.49;1778863;79;20943;-81
2021/08/18 06:06:03;;;;;;;7.83;4.97;;;;;;;14.01;67.70;96533.59;1774829;79;21318;-81
2021/08/18 06:08:29;;;;;;;7.45;4.53;;;;;;;14.07;68.31;96534.59;1772867;79;20900;-81
2021/08/18 06:10:55;;;;;;;8.25;5.03;;;;;;;14.08;68.20;96538.82;1772079;79;20963;-81
2021/08/18 06:13:22;;;;;;;8.70;5.37;;;;;;;14.09;68.47;96539.13;1755137;79;20892;-81
2021/08/18 06:15:48;;;;;;;6.95;5.00;;;;;;;14.06;68.31;96535.61;1776927;79;20903;-81
2021/08/18 06:18:14;;;;;;;7.78;4.78;;;;;;;14.04;68.22;96537.11;1777303;79;20994;-82
2021/08/18 06:20:39;;;;;;;7.25;4.70;;;;;;;14.05;68.97;96533.50;1776417;79;21408;-81
2021/08/18 06:23:05;;;;;;;10.53;5.10;;;;;;;14.05;68.55;96539.22;1781705;79;20955;-81
2021/08/18 06:25:31;;;;;;;6.22;5.00;;;;;;;14.09;68.44;96539.13;1777826;79;20983;-81
2021/08/18 06:27:57;;;;;;;7.15;5.53;;;;;;;14.16;68.74;96539.95;1770113;79;21309;-81
2021/08/18 06:30:23;;;;;;;7.45;5.28;;;;;;;14.21;68.14;96536.22;1764188;79;20952;-82
2021/08/18 06:32:48;;;;;;;6.92;5.53;;;;;;;14.23;68.00;96534.71;1774853;79;20955;-81
2021/08/18 06:35:14;;;;;;;7.53;5.17;;;;;;;14.25;67.95;96535.31;1778035;79;21343;-81
2021/08/18 06:37:40;;;;;;;6.92;5.08;;;;;;;14.27;67.43;96540.64;1776025;79;20911;-82
2021/08/18 06:40:08;;;;;;;8.90;5.58;;;;;;;14.26;68.05;96540.34;1777523;79;20999;-82
2021/08/18 06:42:34;;;;;;;7.87;5.25;;;;;;;14.26;67.41;96532.50;1754501;80;21018;-82
2021/08/18 06:44:59;;;;;;;8.15;5.58;;;;;;;14.28;67.84;96538.33;1777866;79;20984;-81
2021/08/18 06:47:25;;;;;;;9.13;5.58;;;;;;;14.29;67.92;96534.70;1776960;80;21342;-81
2021/08/18 06:49:51;;;;;;;6.15;4.78;;;;;;;14.34;68.38;96535.43;1777923;79;20936;-82
2021/08/18 06:52:16;;;;;;;9.35;5.65;;;;;;;14.40;68.57;96536.72;1775774;79;20980;-81
2021/08/18 06:54:42;;;;;;;10.40;7.25;;;;;;;14.44;67.98;96535.04;1785667;79;21375;-82
2021/08/18 06:57:08;;;;;;;8.53;5.62;;;;;;;14.50;68.16;96536.36;1789253;79;20959;-81
2021/08/18 06:59:34;;;;;;;8.15;5.95;;;;;;;14.57;68.56;96535.03;1790668;79;21335;-81
2021/08/18 07:02:00;;;;;;;9.95;5.95;;;;;;;14.60;67.79;96542.47;1808761;78;20997;-81
2021/08/18 07:04:26;;;;;;;10.18;5.75;;;;;;;14.62;67.87;96540.45;1789484;78;20905;-82
2021/08/18 07:06:51;;;;;;;8.75;5.72;;;;;;;14.62;67.54;96536.53;1771286;78;20980;-82
2021/08/18 07:09:17;;;;;;;7.58;5.30;;;;;;;14.60;66.84;96529.39;1806341;79;20980;-81
2021/08/18 07:11:43;;;;;;;7.42;5.00;;;;;;;14.61;67.30;96533.11;1806481;79;20913;-81
2021/08/18 07:14:08;;;;;;;9.68;5.83;;;;;;;14.62;67.72;96541.25;1822148;78;20952;-82
2021/08/18 07:16:35;;;;;;;7.20;4.72;;;;;;;14.59;67.56;96533.82;1802807;78;20920;-81
2021/08/18 07:19:01;;;;;;;8.80;6.03;;;;;;;14.63;67.43;96533.70;1807452;78;20918;-81
2021/08/18 07:21:27;;;;;;;8.63;5.78;;;;;;;14.66;67.12;96530.71;1785707;78;20972;-82
2021/08/18 07:23:54;;;;;;;8.15;5.12;;;;;;;14.70;67.36;96536.33;1801435;78;21371;-82
2021/08/18 07:26:27;;;;;;;10.30;6.47;;;;;;;14.77;67.42;96535.80;1810475;78;21020;-82
2021/08/18 07:28:55;;;;;;;8.45;6.25;;;;;;;14.85;66.51;96541.34;1806070;79;20910;-82
2021/08/18 07:31:20;;;;;;;9.38;5.90;;;;;;;14.95;67.38;96537.27;1807606;78;21354;-82
2021/08/18 07:33:46;;;;;;;8.93;6.28;;;;;;;15.09;67.36;96530.20;1807590;77;20902;-82
2021/08/18 07:36:12;;;;;;;8.50;5.58;;;;;;;15.19;66.94;96533.20;1803713;78;20933;-82
2021/08/18 07:38:38;;;;;;;9.03;5.72;;;;;;;15.33;67.00;96537.88;1811336;78;20934;-82
2021/08/18 07:41:03;;;;;;;8.58;5.37;;;;;;;15.41;66.37;96531.09;1825022;78;20956;-81
2021/08/18 07:43:29;;;;;;;9.05;5.50;;;;;;;15.49;66.01;96536.10;1824837;78;21046;-81
2021/08/18 07:45:56;;;;;;;9.20;5.17;;;;;;;15.59;66.26;96529.12;1816190;78;20922;-82
2021/08/18 07:48:22;;;;;;;9.45;6.28;;;;;;;15.70;66.49;96523.73;1804958;78;21339;-81
2021/08/18 07:50:47;;;;;;;8.85;5.62;;;;;;;15.72;66.47;96526.94;1805001;78;20952;-82
2021/08/18 07:53:13;;;;;;;9.53;5.90;;;;;;;15.73;65.94;96531.17;1807038;79;20929;-82
2021/08/18 07:55:39;;;;;;;9.65;5.78;;;;;;;15.71;65.71;96534.50;1809358;78;20966;-82
2021/08/18 07:58:05;;;;;;;7.92;6.05;;;;;;;15.54;65.31;96533.66;1791371;78;20987;-82
2021/08/18 08:00:31;;;;;;;10.53;6.62;;;;;;;15.45;65.41;96534.89;1806011;78;21003;-82
2021/08/18 08:02:57;;;;;;;9.90;6.45;;;;;;;15.37;65.35;96527.28;1802135;79;21033;-82
2021/08/18 08:05:23;;;;;;;9.18;5.85;;;;;;;15.24;65.69;96524.71;1807522;78;21000;-82
2021/08/18 08:07:49;;;;;;;10.05;6.60;;;;;;;15.21;66.09;96521.20;1787023;79;20981;-82
2021/08/18 08:10:15;;;;;;;7.90;5.45;;;;;;;15.20;66.08;96526.14;1809825;78;20938;-81
2021/08/18 08:12:41;;;;;;;9.90;6.00;;;;;;;15.30;66.58;96520.78;1798415;79;21068;-82
2021/08/18 08:15:08;;;;;;;8.83;5.67;;;;;;;15.43;66.05;96526.44;1780565;78;21064;-82
2021/08/18 08:17:34;;;;;;;9.58;5.60;;;;;;;15.58;65.67;96520.42;1784932;78;21007;-82
2021/08/18 08:19:59;;;;;;;10.63;6.65;;;;;;;15.64;65.17;96518.03;1729302;79;21012;-82
2021/08/18 08:22:25;;;;;;;8.68;6.00;;;;;;;15.65;65.04;96521.75;1806311;78;21284;-81
2021/08/18 08:24:51;;;;;;;9.40;6.37;;;;;;;15.65;64.42;96516.52;1771603;79;20960;-82
2021/08/18 08:27:17;;;;;;;9.25;6.37;;;;;;;15.73;64.67;96518.06;1798883;78;20958;-82
2021/08/18 08:29:42;;;;;;;9.10;5.75;;;;;;;15.70;64.36;96518.50;1811723;78;20972;-82
2021/08/18 08:32:08;;;;;;;9.55;6.25;;;;;;;15.65;64.47;96509.16;1775422;79;20929;-82
2021/08/18 08:34:34;;;;;;;9.65;5.97;;;;;;;15.63;65.57;96517.23;1803302;78;20944;-82
2021/08/18 08:36:59;;;;;;;9.55;6.20;;;;;;;15.63;65.22;96517.23;1787802;78;20905;-82
2021/08/18 08:39:25;;;;;;;8.63;5.85;;;;;;;15.79;65.51;96515.42;1805837;78;20954;-82
2021/08/18 08:41:51;;;;;;;8.68;5.30;;;;;;;15.96;65.70;96518.34;1810102;78;21018;-82
2021/08/18 08:44:22;;;;;;;9.85;6.22;;;;;;;16.15;62.40;96516.59;1809748;78;21293;-81
2021/08/18 08:46:50;;;;;;;8.83;5.87;;;;;;;16.22;63.70;96501.60;1799371;78;20925;-82
2021/08/18 08:49:17;;;;;;;8.10;5.58;;;;;;;16.38;63.56;96501.06;1802780;78;20999;-81
2021/08/18 08:51:45;;;;;;;8.65;5.65;;;;;;;16.63;64.08;96505.50;1811830;78;21471;-82
2021/08/18 08:54:11;;;;;;;8.68;5.60;;;;;;;16.85;63.92;96499.34;1808204;78;21315;-82
2021/08/18 08:56:36;;;;;;;8.53;5.45;;;;;;;17.02;62.62;96497.23;1821305;78;20968;-82
2021/08/18 08:59:02;;;;;;;9.65;6.72;;;;;;;17.08;62.08;96499.01;1814531;78;20997;-82
2021/08/18 09:02:06;;;;;;;9.30;5.70;;;;;;;16.99;61.66;96500.30;1802445;78;20952;-81
2021/08/18 09:04:46;;;;;;;8.73;5.67;;;;;;;16.93;61.96;96495.14;1791156;78;21332;-81
2021/08/18 09:07:20;;;;;;;7.53;5.53;;;;;;;17.06;61.83;96492.34;1798762;77;20934;-82
2021/08/18 09:09:55;;;;;;;8.43;6.10;;;;;;;17.10;61.66;96503.52;1785182;78;20972;-82
2021/08/18 09:12:35;;;;;;;9.38;6.25;;;;;;;17.00;61.63;96499.28;1783729;78;20981;-82
2021/08/18 09:15:21;;;;;;;8.78;5.95;;;;;;;17.12;62.21;96504.61;1778184;78;21311;-82
2021/08/18 09:17:52;;;;;;;8.55;5.30;;;;;;;17.22;60.80;96502.25;1795973;78;21053;-82
2021/08/18 09:20:23;;;;;;;7.40;4.85;;;;;;;17.30;61.00;96495.41;1790347;79;21004;-82
2021/08/18 09:22:55;;;;;;;7.47;5.67;;;;;;;17.32;60.56;96495.98;1789018;78;20992;-82
2021/08/18 09:25:27;;;;;;;8.75;6.08;;;;;;;17.22;60.15;96494.89;1809028;78;20964;-82
2021/08/18 09:28:04;;;;;;;8.15;5.33;;;;;;;17.07;59.56;96490.81;1794496;78;21013;-82
2021/08/18 09:30:36;;;;;;;7.30;5.60;;;;;;;17.02;59.30;96497.23;1808186;78;20909;-83
2021/08/18 09:33:12;;;;;;;7.37;5.22;;;;;;;17.07;59.84;96508.38;1764319;80;21310;-82
2021/08/18 09:35:38;;;;;;;7.70;4.62;;;;;;;17.15;59.16;96502.86;1757247;80;20980;-82
2021/08/18 09:38:06;;;;;;;7.90;4.83;;;;;;;17.20;58.36;96495.11;1743797;80;21323;-82
2021/08/18 09:40:43;;;;;;;7.30;4.90;;;;;;;17.33;58.99;96489.70;1741177;81;21028;-82
2021/08/18 09:43:22;;;;;;;8.48;5.28;;;;;;;17.50;59.33;96490.41;1736096;80;20969;-82
2021/08/18 09:46:02;;;;;;;9.73;6.03;;;;;;;17.62;57.73;96492.57;1776754;79;21364;-82
2021/08/18 09:48:29;;;;;;;7.30;4.87;;;;;;;17.72;57.82;96481.02;1800037;78;20984;-82
2021/08/18 09:51:03;;;;;;;5.37;4.28;;;;;;;17.92;58.85;96488.64;1799043;78;21012;-82
2021/08/18 09:53:31;;;;;;;7.08;4.80;;;;;;;18.13;59.37;96485.48;1805524;78;21335;-82
2021/08/18 09:56:06;;;;;;;7.50;4.80;;;;;;;18.34;58.65;96485.44;1803509;78;20964;-82
2021/08/18 09:58:39;;;;;;;5.37;3.87;;;;;;;18.51;57.73;96493.45;1811275;78;20924;-82
2021/08/18 10:01:09;;;;;;;7.10;4.45;;;;;;;18.62;55.63;96490.54;1807558;78;21378;-82
2021/08/18 10:03:36;;;;;;;7.35;4.42;;;;;;;18.43;55.87;96493.80;1796994;78;21014;-82
2021/08/18 10:06:02;;;;;;;6.17;4.22;;;;;;;18.30;55.88;96486.92;1811588;78;21016;-82
2021/08/18 10:08:28;;;;;;;5.40;4.12;;;;;;;18.20;57.02;96484.04;1807588;78;21003;-82
2021/08/18 10:10:54;;;;;;;5.47;4.10;;;;;;;18.01;56.09;96493.84;1802597;78;20953;-82
2021/08/18 10:13:20;;;;;;;5.17;3.72;;;;;;;17.87;54.48;96494.55;1799783;77;21355;-83
2021/08/18 10:15:46;;;;;;;7.65;4.15;;;;;;;17.83;55.21;96484.72;1807232;78;20946;-82
2021/08/18 10:18:15;;;;;;;5.65;4.20;;;;;;;17.82;55.61;96489.69;1792658;78;20979;-82
2021/08/18 10:20:41;;;;;;;5.85;4.47;;;;;;;17.94;56.30;96483.45;1779127;78;21052;-82
2021/08/18 10:23:12;;;;;;;7.65;4.60;;;;;;;18.04;55.72;96480.24;1825784;78;20993;-82
2021/08/18 10:25:47;;;;;;;;;;;;;;;18.16;56.31;96481.59;1798098;78;20947;-82
2021/08/18 10:28:13;;;;;;;8.55;5.40;;;;;;;18.20;56.41;96479.58;1813238;78;20099;-82
2021/08/18 10:30:52;;;;;;;6.62;4.33;;;;;;;18.31;56.77;96474.06;1809634;78;20936;-82
2021/08/18 10:33:56;;;;;;;6.70;4.35;;;;;;;18.47;57.13;96477.84;1815102;78;21003;-82
2021/08/18 10:36:44;;;;;;;5.50;4.28;;;;;;;18.33;56.42;96481.20;1779549;77;21353;-82
2021/08/18 10:39:25;;;;;;;5.05;3.70;;;;;;;18.17;56.42;96476.09;1794534;78;21044;-82
2021/08/18 10:42:31;;;;;;;6.37;4.00;;;;;;;18.32;55.63;96473.55;1809552;78;20989;-83
2021/08/18 10:44:57;;;;;;;4.28;3.10;;;;;;;18.50;56.41;96478.17;1785840;78;20933;-83
2021/08/18 10:47:29;;;;;;;5.30;3.35;;;;;;;18.66;55.88;96470.14;1811469;78;21395;-83
2021/08/18 10:50:05;;;;;;;6.37;4.78;;;;;;;18.83;54.19;96468.91;1802886;78;21045;-82
2021/08/18 10:52:39;;;;;;;4.90;3.22;;;;;;;18.92;55.34;96475.95;1794908;78;21399;-82
2021/08/18 10:55:09;;;;;;;4.95;3.47;;;;;;;19.06;55.08;96478.10;1807597;78;21015;-81
2021/08/18 10:57:45;;;;;;;5.62;3.92;;;;;;;19.23;53.49;96477.38;1804495;78;20908;-82
2021/08/18 11:00:19;;;;;;;5.42;3.10;;;;;;;19.22;53.16;96481.05;1796110;78;21001;-82
2021/08/18 11:02:53;;;;;;;5.83;3.40;;;;;;;19.25;54.18;96479.25;1798310;78;20957;-82
2021/08/18 11:05:22;;;;;;;4.62;3.10;;;;;;;19.29;54.01;96477.23;1802219;78;21366;-82
2021/08/18 11:08:16;;;;;;;6.05;3.37;;;;;;;19.33;54.76;96472.28;1802928;78;20965;-82
2021/08/18 11:10:57;;;;;;;6.50;3.62;;;;;;;19.34;53.87;96476.00;1788286;78;21323;-82
2021/08/18 11:13:44;;;;;;;11.33;7.90;;;;;;;19.27;53.65;96475.86;1757364;80;20965;-82
2021/08/18 11:16:28;;;;;;;8.50;5.53;;;;;;;19.25;53.94;96469.52;1740819;81;20990;-82
2021/08/18 11:19:02;;;;;;;18.73;12.28;;;;;;;19.21;52.47;96466.27;1803145;78;21366;-82
2021/08/18 11:21:30;;;;;;;14.87;9.68;;;;;;;19.19;53.77;96464.64;1789805;79;21068;-82
2021/08/18 11:23:59;;;;;;;11.55;7.83;;;;;;;19.26;54.22;96465.05;1800697;78;21014;-82
2021/08/18 11:26:35;;;;;;;7.62;5.85;;;;;;;19.34;54.06;96465.98;1771779;78;21055;-81
2021/08/18 11:29:19;;;;;;;8.70;5.25;;;;;;;19.35;53.89;96459.16;1800089;78;20964;-82
2021/08/18 11:31:50;;;;;;;6.15;4.60;;;;;;;19.46;52.32;96449.09;1773560;78;20944;-82
2021/08/18 11:34:27;;;;;;;4.95;4.03;;;;;;;19.55;52.69;96457.98;1800025;78;20959;-81
2021/08/18 11:37:05;;;;;;;5.12;3.72;;;;;;;19.52;54.02;96460.52;1793217;78;20995;-82